Troy, Illinois
Current Conditions -  °F | °C
As of 9:58 AM on Saturday 25 Oct 2014 (Local Time) from KBLV Reporting Station
Clear Clear  
Wind Chill: 68°   Ceiling: Unl
Heat Index: 68°   Visibility: 10mi
Dew Point: 65°   Wind: 8mph
Humidity: 89%   Direction: 330°NNW
Pressure: 30.04"   Gusts: NA
Location:  38.73°N, 89.88°W
Report Text: KBLV 251458Z AUTO 33007KT 10SM CLR 20/18 A3004 RMK AO2 SLP174 T01990181 51012 $
Loading
Personal Weather Stations






























Interactive Weather Map
Tropical Storm Tracking
New forecast layout! Learn more

10-Day Weather Forecast

Advertisements
Track Severe Weather on mobile